Terminal Aerodrome Forecast
Issued by NWS

Home | Current Version | Previous Version | Text Only | Print | Product List | Glossary On
Versions: 1 2 3 4 5 6 7 8 9 10 11 12 13 14
028
FTAK31 PAJN 240520
TAFAPG
TAF
PAPG 240520Z 2406/2506 VRB03KT P6SM VCSH SCT035 BKN050
     FM241400 VRB03KT 2SM -SN BR BKN012 OVC025
     FM242100 12005KT P6SM VCSH FEW010 SCT025 BKN050
      AMD LTD TO CLD VIS AND WIND 2406/2415=

USA.gov is the U.S. government's official web portal to all federal, state and local government web resources and services.